Time;durP1;ratioP1;P1;durP2;ratioP2;P2;SDS_P1;SDS_P2;PMS_P1;PMS_P2;Temp;Humidity;BMP_temperature;BMP_pressure;BME280_temperature;BME280_humidity;BME280_pressure;Samples;Min_cycle;Max_cycle;Signal;HPM_P1;HPM_P2
2023/01/20 00:01:16;;;;;;;55.17;24.58;;;1.40;99.90;;;;;;5079736;28;20024;-61
2023/01/20 00:03:44;;;;;;;59.60;23.38;;;1.40;99.90;;;;;;5079667;28;20346;-62
2023/01/20 00:06:10;;;;;;;54.10;24.55;;;1.40;99.90;;;;;;5062194;28;20049;-61
2023/01/20 00:08:37;;;;;;;54.72;23.85;;;1.50;99.90;;;;;;5079589;28;20107;-62
2023/01/20 00:11:08;;;;;;;49.92;23.77;;;1.50;99.90;;;;;;5079423;28;20044;-62
2023/01/20 00:13:35;;;;;;;44.97;21.58;;;1.60;99.90;;;;;;5079497;28;20086;-62
2023/01/20 00:16:03;;;;;;;48.25;20.95;;;1.80;99.90;;;;;;5061961;28;20036;-62
2023/01/20 00:18:29;;;;;;;49.38;21.10;;;1.90;99.90;;;;;;5079407;28;20100;-64
2023/01/20 00:20:55;;;;;;;54.10;22.60;;;1.90;99.90;;;;;;5079472;28;20300;-64
2023/01/20 00:23:21;;;;;;;50.85;22.05;;;1.80;99.90;;;;;;5062324;28;20028;-64
2023/01/20 00:25:46;;;;;;;48.90;21.85;;;1.80;99.90;;;;;;5079553;28;20032;-64
2023/01/20 00:28:13;;;;;;;51.85;23.08;;;1.70;99.90;;;;;;5079224;28;20040;-63
2023/01/20 00:30:39;;;;;;;51.10;22.38;;;1.70;99.90;;;;;;5079100;28;20468;-63
2023/01/20 00:33:04;;;;;;;48.80;22.02;;;1.70;99.90;;;;;;5061624;28;20362;-63
2023/01/20 00:35:36;;;;;;;47.67;21.08;;;1.70;99.90;;;;;;5079241;28;20107;-63
2023/01/20 00:38:02;;;;;;;;;;;1.70;99.90;;;;;;5079282;28;20100;-63
2023/01/20 00:40:28;;;;;;;46.05;21.13;;;1.70;99.90;;;;;;5078895;28;19995;-62
2023/01/20 00:42:54;;;;;;;48.95;21.52;;;1.60;99.90;;;;;;5061641;28;20047;-61
2023/01/20 00:45:20;;;;;;;46.90;21.45;;;1.50;99.90;;;;;;5078906;28;20028;-62
2023/01/20 00:47:46;;;;;;;46.42;21.08;;;1.40;99.90;;;;;;5078814;28;20028;-62
2023/01/20 00:50:11;;;;;;;48.88;21.92;;;1.50;99.90;;;;;;5078608;28;20294;-61
2023/01/20 00:52:37;;;;;;;51.72;22.65;;;1.40;99.90;;;;;;5078695;28;20304;-62
2023/01/20 00:55:03;;;;;;;49.15;21.90;;;1.40;99.90;;;;;;5078714;28;20098;-62
2023/01/20 00:57:29;;;;;;;54.63;22.73;;;1.50;99.90;;;;;;5061304;28;20029;-62
2023/01/20 00:59:55;;;;;;;52.88;22.92;;;1.50;99.90;;;;;;5078546;28;20025;-62
2023/01/20 01:02:21;;;;;;;52.63;22.67;;;1.50;99.90;;;;;;5078551;28;20029;-62
2023/01/20 01:04:50;;;;;;;50.92;22.05;;;1.50;99.90;;;;;;5078557;28;20123;-63
2023/01/20 01:07:17;;;;;;;52.20;22.67;;;1.40;99.90;;;;;;5061184;28;20281;-61
2023/01/20 01:09:43;;;;;;;59.33;24.75;;;1.40;99.90;;;;;;5078388;28;20036;-62
2023/01/20 01:12:09;;;;;;;55.97;23.80;;;1.40;99.90;;;;;;5078366;28;20028;-62
2023/01/20 01:14:34;;;;;;;52.50;23.58;;;1.40;99.90;;;;;;5060906;28;20043;-62
2023/01/20 01:17:00;;;;;;;53.80;23.75;;;1.40;99.90;;;;;;5078191;28;20457;-62
2023/01/20 01:19:26;;;;;;;53.63;22.65;;;1.40;99.90;;;;;;5078811;28;20020;-62
2023/01/20 01:21:52;;;;;;;58.40;24.48;;;1.40;99.90;;;;;;5044378;28;20189;-62
2023/01/20 01:24:18;;;;;;;57.53;24.50;;;1.40;99.90;;;;;;5078123;28;20281;-62
2023/01/20 01:26:43;;;;;;;54.53;24.48;;;1.40;99.90;;;;;;5060692;28;20304;-62
2023/01/20 01:29:09;;;;;;;51.10;23.05;;;1.40;99.90;;;;;;5078603;28;20037;-63
2023/01/20 01:31:35;;;;;;;50.40;22.83;;;1.50;99.90;;;;;;5078060;28;20366;-64
2023/01/20 01:34:01;;;;;;;51.95;22.65;;;1.60;99.90;;;;;;5060595;28;20170;-62
2023/01/20 01:36:27;;;;;;;58.88;23.50;;;1.60;99.90;;;;;;5060440;28;20089;-63
2023/01/20 01:38:52;;;;;;;52.15;23.88;;;1.60;99.90;;;;;;5077819;28;20464;-61
2023/01/20 01:41:18;;;;;;;50.60;22.60;;;1.50;99.90;;;;;;5060446;28;20094;-61
2023/01/20 01:44:08;;;;;;;48.42;21.90;;;1.60;99.90;;;;;;5077800;28;20033;-63
2023/01/20 01:46:35;;;;;;;57.47;22.77;;;1.50;99.90;;;;;;5077633;28;20346;-62
2023/01/20 01:49:12;;;;;;;56.13;24.10;;;1.40;99.90;;;;;;5077657;28;20037;-62
2023/01/20 01:51:45;;;;;;;55.30;24.08;;;1.40;99.90;;;;;;5060074;28;20074;-63
2023/01/20 01:54:16;;;;;;;55.80;24.05;;;1.50;99.90;;;;;;5077628;28;20437;-63
2023/01/20 01:56:43;;;;;;;54.33;23.75;;;1.60;99.90;;;;;;5060298;28;20120;-63
2023/01/20 01:59:11;;;;;;;54.65;23.02;;;1.70;99.90;;;;;;5077473;28;20475;-63
2023/01/20 02:01:39;;;;;;;52.25;23.50;;;1.80;99.90;;;;;;5077289;28;20044;-63
2023/01/20 02:04:14;;;;;;;51.92;23.80;;;1.70;99.90;;;;;;5060019;28;20350;-63
2023/01/20 02:06:43;;;;;;;52.30;23.67;;;1.70;99.90;;;;;;5059834;28;20040;-63
2023/01/20 02:09:09;;;;;;;52.53;23.70;;;1.60;99.90;;;;;;5077835;28;20036;-62
2023/01/20 02:11:47;;;;;;;52.88;23.25;;;1.50;99.90;;;;;;5077325;28;20434;-62
2023/01/20 02:14:18;;;;;;;55.47;22.88;;;1.50;99.90;;;;;;5077270;28;20028;-63
2023/01/20 02:17:03;;;;;;;54.58;24.08;;;1.40;99.90;;;;;;5077209;28;20115;-62
2023/01/20 02:19:32;;;;;;;54.90;23.25;;;1.30;99.90;;;;;;5078022;28;20074;-62
2023/01/20 02:21:57;;;;;;;55.28;24.00;;;1.30;99.90;;;;;;5077139;28;20021;-62
2023/01/20 02:24:41;;;;;;;48.08;23.00;;;1.30;99.90;;;;;;5043073;28;20028;-62
2023/01/20 02:27:32;;;;;;;53.53;22.50;;;1.40;99.90;;;;;;5077050;28;20084;-63
2023/01/20 02:30:16;;;;;;;57.65;25.33;;;1.30;99.90;;;;;;5076331;28;20033;-62
2023/01/20 02:33:00;;;;;;;54.00;23.23;;;1.30;99.90;;;;;;5077093;28;20103;-63
2023/01/20 02:36:01;;;;;;;54.92;23.10;;;1.40;99.90;;;;;;5060191;28;20068;-61
2023/01/20 02:38:39;;;;;;;48.88;22.13;;;1.30;99.90;;;;;;5068718;28;20040;-61
2023/01/20 02:41:09;;;;;;;49.10;22.92;;;1.30;99.90;;;;;;5076997;28;20028;-61
2023/01/20 02:44:03;;;;;;;50.92;22.98;;;1.20;99.90;;;;;;5042788;28;20043;-61
2023/01/20 02:46:45;;;;;;;53.00;23.35;;;1.20;99.90;;;;;;5049016;28;20048;-61
2023/01/20 02:49:26;;;;;;;51.80;23.20;;;1.20;99.90;;;;;;5076896;28;20032;-61
2023/01/20 02:52:30;;;;;;;61.35;24.08;;;1.10;99.90;;;;;;5052743;28;20038;-60
2023/01/20 02:55:00;;;;;;;60.67;24.25;;;1.10;99.90;;;;;;4996223;28;20409;-61
2023/01/20 02:57:35;;;;;;;55.53;24.88;;;1.10;99.90;;;;;;5030774;28;20392;-62
2023/01/20 03:00:12;;;;;;;57.55;23.63;;;1.10;99.90;;;;;;5037387;28;20025;-61
2023/01/20 03:02:41;;;;;;;60.75;25.52;;;1.00;99.90;;;;;;5041369;28;20030;-60
2023/01/20 03:05:12;;;;;;;60.25;24.48;;;1.10;99.90;;;;;;5041100;28;20140;-61
2023/01/20 03:07:41;;;;;;;63.20;25.70;;;1.10;99.90;;;;;;5041178;28;20397;-61
2023/01/20 03:10:11;;;;;;;53.40;23.05;;;1.10;99.90;;;;;;5040730;28;20120;-62
2023/01/20 03:12:40;;;;;;;60.83;24.00;;;1.10;99.90;;;;;;5039936;28;20359;-60
2023/01/20 03:15:07;;;;;;;57.42;24.25;;;1.10;99.90;;;;;;5056485;28;20116;-61
2023/01/20 03:17:34;;;;;;;62.58;23.92;;;1.00;99.90;;;;;;5040551;28;20069;-61
2023/01/20 03:20:00;;;;;;;53.67;24.55;;;1.00;99.90;;;;;;5039817;28;20452;-61
2023/01/20 03:22:28;;;;;;;55.95;23.90;;;1.00;99.90;;;;;;5040465;28;20087;-61
2023/01/20 03:24:56;;;;;;;61.03;25.33;;;1.10;99.90;;;;;;5040503;28;20025;-61
2023/01/20 03:27:22;;;;;;;60.40;25.63;;;1.00;99.90;;;;;;5040407;28;20033;-61
2023/01/20 03:29:47;;;;;;;57.80;23.63;;;0.90;99.90;;;;;;5040386;28;20041;-61
2023/01/20 03:32:14;;;;;;;59.40;24.63;;;0.90;99.90;;;;;;5040212;28;20025;-60
2023/01/20 03:34:41;;;;;;;54.28;24.30;;;0.90;99.90;;;;;;5040142;28;20041;-64
2023/01/20 03:37:09;;;;;;;56.58;24.30;;;0.90;99.90;;;;;;5040316;28;20041;-61
2023/01/20 03:39:38;;;;;;;56.53;24.75;;;0.90;99.90;;;;;;5039517;28;20178;-61
2023/01/20 03:42:22;;;;;;;54.03;24.17;;;1.00;99.90;;;;;;5040193;28;20025;-61
2023/01/20 03:44:48;;;;;;;56.47;24.00;;;1.00;99.90;;;;;;5040102;28;20343;-62
2023/01/20 03:47:49;;;;;;;59.28;25.13;;;0.90;99.90;;;;;;5039972;28;20025;-60
2023/01/20 03:50:39;;;;;;;57.10;23.98;;;0.90;99.90;;;;;;5055492;28;20053;-61
2023/01/20 03:53:20;;;;;;;54.95;24.25;;;0.90;99.90;;;;;;5079868;28;20032;-60
2023/01/20 03:55:59;;;;;;;62.00;24.52;;;0.90;99.90;;;;;;5079893;28;20112;-61
2023/01/20 03:58:32;;;;;;;53.88;23.52;;;0.90;99.90;;;;;;5079953;28;20037;-60
2023/01/20 04:01:02;;;;;;;56.35;24.20;;;1.00;99.90;;;;;;5079846;28;20025;-60
2023/01/20 04:03:31;;;;;;;58.83;23.77;;;1.00;99.90;;;;;;5079737;28;20036;-61
2023/01/20 04:06:03;;;;;;;57.50;24.02;;;1.00;99.90;;;;;;5062227;28;20128;-60
2023/01/20 04:08:34;;;;;;;57.10;23.73;;;1.00;99.90;;;;;;5079612;28;20120;-60
2023/01/20 04:11:03;;;;;;;53.00;23.75;;;1.00;99.90;;;;;;5079870;28;20085;-62
2023/01/20 04:13:29;;;;;;;52.63;22.25;;;1.00;99.90;;;;;;5079163;28;20037;-63
2023/01/20 04:15:56;;;;;;;56.33;23.65;;;1.00;99.90;;;;;;5062114;28;20048;-61
2023/01/20 04:18:23;;;;;;;49.83;23.10;;;1.00;99.90;;;;;;5079452;28;20025;-62
2023/01/20 04:21:01;;;;;;;54.60;23.25;;;1.00;99.90;;;;;;5061970;28;20033;-63
2023/01/20 04:23:32;;;;;;;52.53;23.25;;;1.00;99.90;;;;;;5079387;28;20299;-62
2023/01/20 04:25:58;;;;;;;53.97;24.00;;;1.10;99.90;;;;;;5079730;28;20396;-62
2023/01/20 04:28:24;;;;;;;57.03;23.15;;;1.20;99.90;;;;;;5079411;28;20055;-62
2023/01/20 04:30:50;;;;;;;45.75;22.65;;;1.20;99.90;;;;;;5079434;28;20028;-61
2023/01/20 04:33:16;;;;;;;55.92;22.88;;;1.20;99.90;;;;;;5079149;28;20047;-62
2023/01/20 04:35:45;;;;;;;54.05;22.88;;;1.10;99.90;;;;;;5079024;28;20033;-62
2023/01/20 04:38:11;;;;;;;53.35;21.90;;;1.10;99.90;;;;;;5061437;28;20032;-60
2023/01/20 04:40:37;;;;;;;49.83;22.23;;;1.20;99.90;;;;;;5079000;28;20048;-60
2023/01/20 04:43:03;;;;;;;46.95;21.23;;;1.20;99.90;;;;;;5061494;28;20094;-60
2023/01/20 04:45:29;;;;;;;46.40;21.60;;;1.20;99.90;;;;;;5079024;28;20059;-61
2023/01/20 04:47:54;;;;;;;47.65;21.17;;;1.20;99.90;;;;;;5078861;28;20060;-60
2023/01/20 04:50:20;;;;;;;50.63;22.65;;;1.20;99.90;;;;;;5061451;28;20098;-60
2023/01/20 04:52:46;;;;;;;49.75;22.02;;;1.20;99.90;;;;;;5078687;28;20024;-60
2023/01/20 04:55:12;;;;;;;47.13;21.15;;;1.20;99.90;;;;;;5061638;28;20088;-61
2023/01/20 04:57:38;;;;;;;49.38;21.50;;;1.30;99.90;;;;;;5078676;28;20024;-60
2023/01/20 05:00:06;;;;;;;46.47;21.10;;;1.30;99.90;;;;;;5061441;28;20021;-60
2023/01/20 05:02:32;;;;;;;45.03;20.83;;;1.30;99.90;;;;;;5061053;28;20119;-60
2023/01/20 05:04:57;;;;;;;47.03;21.50;;;1.30;99.90;;;;;;5078588;28;20108;-60
2023/01/20 05:07:23;;;;;;;43.05;20.30;;;1.40;99.90;;;;;;5078471;28;20032;-60
2023/01/20 05:09:49;;;;;;;47.90;21.42;;;1.50;99.90;;;;;;5061188;28;20090;-60
2023/01/20 05:12:15;;;;;;;44.95;20.52;;;1.50;99.90;;;;;;5061246;28;20032;-60
2023/01/20 05:14:40;;;;;;;44.10;19.88;;;1.50;99.90;;;;;;5078295;28;20028;-61
2023/01/20 05:17:06;;;;;;;40.55;20.10;;;1.60;99.90;;;;;;5061224;28;20029;-60
2023/01/20 05:19:32;;;;;;;43.53;20.73;;;1.60;99.90;;;;;;5061180;28;20036;-61
2023/01/20 05:21:59;;;;;;;41.03;19.27;;;1.60;99.90;;;;;;5060947;28;20086;-60
2023/01/20 05:24:25;;;;;;;36.63;18.83;;;1.60;99.90;;;;;;5077618;28;20418;-60
2023/01/20 05:26:50;;;;;;;43.72;20.20;;;1.50;99.90;;;;;;5078373;28;20032;-60
2023/01/20 05:29:16;;;;;;;44.58;19.52;;;1.50;99.90;;;;;;5078634;28;20040;-60
2023/01/20 05:31:42;;;;;;;39.03;18.48;;;1.50;99.90;;;;;;5078295;28;20047;-60
2023/01/20 05:34:09;;;;;;;38.58;18.77;;;1.50;99.90;;;;;;5077872;28;20031;-60
2023/01/20 05:36:35;;;;;;;41.92;19.73;;;1.60;99.90;;;;;;5077883;28;20103;-60
2023/01/20 05:39:01;;;;;;;40.15;18.83;;;1.60;99.90;;;;;;5077890;28;20103;-60
2023/01/20 05:41:26;;;;;;;36.90;18.75;;;1.60;99.90;;;;;;5077817;28;20025;-61
2023/01/20 05:43:53;;;;;;;35.47;18.48;;;1.60;99.90;;;;;;5077776;28;20048;-60
2023/01/20 05:46:19;;;;;;;41.25;18.00;;;1.70;99.90;;;;;;5077672;28;20029;-60
2023/01/20 05:48:45;;;;;;;39.03;18.88;;;1.60;99.90;;;;;;5060469;28;20051;-60
2023/01/20 05:51:11;;;;;;;39.72;18.63;;;1.50;99.90;;;;;;5056756;28;20420;-60
2023/01/20 05:53:36;;;;;;;40.45;18.52;;;1.50;99.90;;;;;;5056875;28;20094;-60
2023/01/20 05:56:04;;;;;;;45.17;18.73;;;1.60;99.90;;;;;;5057591;28;20030;-60
2023/01/20 05:58:31;;;;;;;37.55;18.58;;;1.50;99.90;;;;;;5057853;28;20300;-60
2023/01/20 06:01:08;;;;;;;42.17;19.48;;;1.50;99.90;;;;;;5057437;28;20036;-60
2023/01/20 06:03:34;;;;;;;35.15;17.67;;;1.50;99.90;;;;;;5057697;28;20033;-61
2023/01/20 06:06:02;;;;;;;37.45;17.88;;;1.60;99.90;;;;;;5057899;28;20033;-60
2023/01/20 06:08:28;;;;;;;37.47;17.73;;;1.60;99.90;;;;;;5057352;28;20162;-60
2023/01/20 06:10:54;;;;;;;39.78;18.63;;;1.60;99.90;;;;;;5057747;28;20098;-61
2023/01/20 06:13:20;;;;;;;41.15;19.38;;;1.50;99.90;;;;;;5057293;28;20377;-63
2023/01/20 06:15:51;;;;;;;38.10;18.80;;;1.60;99.90;;;;;;5057703;28;20102;-61
2023/01/20 06:18:17;;;;;;;38.80;18.90;;;1.60;99.90;;;;;;5057587;28;20392;-61
2023/01/20 06:20:42;;;;;;;38.47;18.38;;;1.60;99.90;;;;;;5057327;28;20059;-62
2023/01/20 06:23:08;;;;;;;41.67;18.95;;;1.70;99.90;;;;;;5057101;28;20043;-61
2023/01/20 06:25:34;;;;;;;40.65;18.52;;;1.70;99.90;;;;;;5056789;28;20296;-62
2023/01/20 06:28:00;;;;;;;39.60;19.13;;;1.70;99.90;;;;;;5057064;28;20033;-62
2023/01/20 06:30:26;;;;;;;37.15;18.00;;;1.60;99.90;;;;;;5056440;28;20049;-62
2023/01/20 06:32:53;;;;;;;43.40;18.00;;;1.60;99.90;;;;;;5057012;28;20025;-61
2023/01/20 06:35:20;;;;;;;38.33;19.10;;;1.60;99.90;;;;;;5056029;28;20040;-62
2023/01/20 06:37:46;;;;;;;44.40;20.17;;;1.50;99.90;;;;;;5056962;28;20343;-62
2023/01/20 06:40:13;;;;;;;44.45;18.83;;;1.50;99.90;;;;;;5057048;28;20112;-61
2023/01/20 06:42:39;;;;;;;41.55;19.02;;;1.60;99.90;;;;;;5056857;28;20021;-61
2023/01/20 06:45:06;;;;;;;40.10;18.98;;;1.60;99.90;;;;;;5056014;28;20105;-61
2023/01/20 06:47:32;;;;;;;36.72;18.75;;;1.60;99.90;;;;;;5039727;28;20036;-62
2023/01/20 06:49:57;;;;;;;39.55;19.02;;;1.60;99.90;;;;;;5052727;28;20305;-62
2023/01/20 06:52:23;;;;;;;46.33;19.52;;;1.60;99.90;;;;;;5036819;28;20041;-61
2023/01/20 06:54:49;;;;;;;38.53;18.42;;;1.70;99.90;;;;;;5037058;28;20038;-62
2023/01/20 06:57:15;;;;;;;39.67;18.80;;;1.70;99.90;;;;;;5036788;28;20325;-63
2023/01/20 06:59:41;;;;;;;36.78;19.88;;;1.70;99.90;;;;;;5036750;28;20101;-62
2023/01/20 07:02:10;;;;;;;37.10;17.40;;;1.70;99.90;;;;;;5036963;28;20351;-61
2023/01/20 07:04:36;;;;;;;36.13;18.20;;;1.70;99.90;;;;;;5036447;28;20041;-62
2023/01/20 07:07:02;;;;;;;40.13;18.83;;;1.70;99.90;;;;;;5052431;28;20034;-63
2023/01/20 07:09:28;;;;;;;38.08;18.45;;;1.80;99.90;;;;;;5036065;28;20037;-63
2023/01/20 07:11:54;;;;;;;39.72;18.27;;;2.00;99.90;;;;;;5036520;28;20048;-63
2023/01/20 07:14:20;;;;;;;35.53;17.70;;;1.90;99.90;;;;;;5036724;28;20092;-64
2023/01/20 07:16:46;;;;;;;38.85;17.48;;;2.10;99.90;;;;;;5035918;28;20068;-64
2023/01/20 07:19:12;;;;;;;35.88;17.48;;;2.10;99.90;;;;;;5036600;28;20036;-61
2023/01/20 07:21:38;;;;;;;38.38;18.10;;;2.10;99.90;;;;;;5035784;28;20030;-62
2023/01/20 07:24:05;;;;;;;37.35;17.00;;;2.00;99.90;;;;;;5035726;28;20037;-62
2023/01/20 07:26:31;;;;;;;39.47;19.02;;;2.60;99.90;;;;;;5036475;28;20037;-62
2023/01/20 07:28:58;;;;;;;35.33;17.33;;;2.40;99.90;;;;;;5036496;28;20065;-63
2023/01/20 07:31:27;;;;;;;35.45;17.25;;;2.00;99.90;;;;;;5037073;28;20029;-63
2023/01/20 07:33:56;;;;;;;33.03;17.17;;;1.80;99.90;;;;;;5036364;28;20336;-61
2023/01/20 07:36:23;;;;;;;34.33;17.40;;;1.60;99.90;;;;;;5036415;28;20297;-61
2023/01/20 07:38:50;;;;;;;34.42;17.48;;;1.70;99.90;;;;;;5036739;28;20044;-61
2023/01/20 07:41:18;;;;;;;34.00;18.23;;;1.60;99.90;;;;;;5036681;28;20025;-61
2023/01/20 07:43:45;;;;;;;32.88;16.70;;;1.60;99.90;;;;;;5035707;28;20053;-60
2023/01/20 07:46:12;;;;;;;34.30;17.75;;;1.50;99.90;;;;;;5036317;28;20034;-60
2023/01/20 07:48:38;;;;;;;40.30;18.73;;;1.80;99.90;;;;;;5039978;28;20305;-61
2023/01/20 07:51:07;;;;;;;37.08;18.20;;;1.60;99.90;;;;;;5055569;28;20053;-61
2023/01/20 07:53:47;;;;;;;36.90;18.27;;;1.40;99.90;;;;;;5039755;28;20120;-62
2023/01/20 07:56:16;;;;;;;37.08;18.02;;;1.40;99.90;;;;;;5039225;28;20026;-61
2023/01/20 07:58:46;;;;;;;37.85;18.35;;;1.40;99.90;;;;;;5039834;28;20029;-61
2023/01/20 08:01:22;;;;;;;42.80;19.48;;;1.40;99.90;;;;;;5039880;28;20029;-61
2023/01/20 08:03:48;;;;;;;38.65;18.30;;;1.40;99.90;;;;;;5039364;28;20028;-60
2023/01/20 08:06:16;;;;;;;41.42;20.73;;;1.50;99.90;;;;;;5039680;28;20037;-60
2023/01/20 08:08:42;;;;;;;44.42;20.88;;;1.50;99.90;;;;;;5040310;28;20036;-60
2023/01/20 08:11:10;;;;;;;45.17;20.15;;;1.60;99.90;;;;;;5038942;28;20041;-60
2023/01/20 08:13:36;;;;;;;40.50;19.88;;;1.70;99.90;;;;;;5039608;28;20037;-61
2023/01/20 08:16:04;;;;;;;37.97;19.98;;;1.60;99.90;;;;;;5038870;28;20032;-61
2023/01/20 08:18:31;;;;;;;37.85;18.60;;;1.50;99.90;;;;;;5039457;28;20458;-61
2023/01/20 08:20:57;;;;;;;38.67;19.77;;;1.40;99.90;;;;;;5039499;28;20043;-61
2023/01/20 08:23:23;;;;;;;39.35;18.77;;;1.50;99.90;;;;;;5039379;28;20040;-61
2023/01/20 08:25:57;;;;;;;36.45;18.00;;;1.60;99.90;;;;;;5039228;28;20412;-60
2023/01/20 08:28:23;;;;;;;40.95;19.10;;;1.50;99.90;;;;;;5039409;28;20121;-60
2023/01/20 08:30:48;;;;;;;38.30;19.15;;;1.60;99.90;;;;;;5039048;28;20055;-61
2023/01/20 08:33:14;;;;;;;39.38;19.38;;;1.60;99.90;;;;;;5038315;28;20045;-58
2023/01/20 08:35:40;;;;;;;38.42;20.15;;;1.60;99.90;;;;;;5038379;28;20026;-58
2023/01/20 08:38:06;;;;;;;34.42;18.30;;;1.70;99.90;;;;;;5038297;28;20033;-58
2023/01/20 08:40:32;;;;;;;41.45;20.58;;;1.70;99.90;;;;;;5038902;28;20340;-59
2023/01/20 08:42:58;;;;;;;37.05;19.10;;;1.80;99.90;;;;;;5021418;28;20029;-58
2023/01/20 08:45:24;;;;;;;42.70;19.73;;;1.80;99.90;;;;;;5038549;28;20278;-58
2023/01/20 08:47:50;;;;;;;38.92;18.10;;;1.70;99.90;;;;;;5038626;28;20095;-58
2023/01/20 08:50:16;;;;;;;38.53;19.50;;;1.80;99.90;;;;;;5045487;28;20332;-58
2023/01/20 08:52:42;;;;;;;40.38;19.23;;;1.80;99.90;;;;;;5058434;28;20110;-58
2023/01/20 08:55:09;;;;;;;36.75;18.95;;;1.90;99.90;;;;;;5058439;28;20042;-59
2023/01/20 08:57:35;;;;;;;38.60;19.65;;;2.00;99.90;;;;;;5057497;28;20340;-58
2023/01/20 09:00:04;;;;;;;37.20;18.67;;;2.10;99.90;;;;;;5058491;28;20048;-59
2023/01/20 09:02:30;;;;;;;39.63;18.50;;;2.20;99.90;;;;;;5059037;28;20029;-58
2023/01/20 09:04:55;;;;;;;36.47;18.58;;;2.20;99.90;;;;;;5058358;28;20079;-58
2023/01/20 09:07:21;;;;;;;34.55;17.73;;;2.30;99.90;;;;;;5058759;28;20112;-57
2023/01/20 09:09:47;;;;;;;38.15;17.25;;;2.30;99.90;;;;;;5058379;28;20040;-57
2023/01/20 09:12:13;;;;;;;32.13;16.65;;;2.30;99.90;;;;;;5058329;28;20409;-58
2023/01/20 09:14:39;;;;;;;34.45;16.85;;;2.30;99.90;;;;;;5058299;28;20044;-58
2023/01/20 09:17:05;;;;;;;33.13;15.93;;;2.40;99.90;;;;;;5058104;28;20032;-59
2023/01/20 09:19:31;;;;;;;36.20;17.33;;;2.40;99.90;;;;;;5058271;28;20362;-59
2023/01/20 09:21:57;;;;;;;36.03;15.90;;;2.50;99.90;;;;;;5058075;28;20141;-58
2023/01/20 09:24:23;;;;;;;26.30;15.43;;;2.60;99.90;;;;;;5058002;28;20040;-59
2023/01/20 09:26:49;;;;;;;27.08;15.35;;;2.70;99.90;;;;;;5057854;28;20288;-58
2023/01/20 09:29:18;;;;;;;24.23;15.27;;;2.70;99.90;;;;;;5057881;28;20297;-58
2023/01/20 09:31:51;;;;;;;28.83;15.48;;;2.80;99.90;;;;;;5057876;28;20036;-58
2023/01/20 09:34:23;;;;;;;25.83;14.07;;;2.90;99.90;;;;;;5056983;28;20442;-58
2023/01/20 09:36:53;;;;;;;25.60;14.15;;;3.00;99.90;;;;;;5058250;28;20037;-59
2023/01/20 09:45:41;;;;;;;24.83;13.27;;;3.40;99.90;;;;;;5057727;28;20021;-59
2023/01/20 09:54:58;;;;;;;23.95;12.55;;;3.40;99.90;;;;;;5057440;28;20119;-58
2023/01/20 09:57:26;;;;;;;24.35;12.95;;;3.10;99.90;;;;;;5056817;28;20029;-58
2023/01/20 10:00:06;;;;;;;26.23;13.13;;;3.00;99.90;;;;;;5057674;28;20060;-58
2023/01/20 10:02:35;;;;;;;25.63;12.60;;;2.90;99.90;;;;;;5057428;28;20063;-58
2023/01/20 10:05:31;;;;;;;24.33;12.27;;;3.00;99.90;;;;;;5057332;28;20033;-58
2023/01/20 10:08:03;;;;;;;26.83;13.02;;;3.10;99.90;;;;;;5056427;28;20103;-58
2023/01/20 10:10:59;;;;;;;23.85;12.65;;;3.00;99.90;;;;;;5056346;28;20040;-58
2023/01/20 10:13:36;;;;;;;19.95;12.25;;;3.00;99.90;;;;;;5053435;28;20452;-58
2023/01/20 10:16:07;;;;;;;23.58;11.63;;;3.20;99.90;;;;;;5057058;28;20411;-58
2023/01/20 10:18:44;;;;;;;22.13;11.85;;;3.40;99.90;;;;;;5057231;28;20104;-58
2023/01/20 10:21:21;;;;;;;19.67;11.13;;;3.40;99.90;;;;;;5056958;28;20033;-58
2023/01/20 10:23:51;;;;;;;23.10;11.15;;;3.30;99.90;;;;;;5057010;28;20033;-59
2023/01/20 10:26:41;;;;;;;20.55;11.88;;;3.40;99.90;;;;;;5056869;28;20126;-59
2023/01/20 10:29:13;;;;;;;22.55;11.70;;;3.60;99.90;;;;;;5057406;28;20043;-59
2023/01/20 10:31:52;;;;;;;18.90;10.65;;;3.40;99.90;;;;;;5057081;28;20056;-60
2023/01/20 10:34:19;;;;;;;23.65;11.40;;;3.50;99.90;;;;;;5057287;28;20033;-59
2023/01/20 10:36:58;;;;;;;23.88;11.13;;;3.50;99.90;;;;;;5056792;28;20033;-59
2023/01/20 10:39:37;;;;;;;26.23;10.73;;;3.50;99.90;;;;;;5056847;28;20079;-59
2023/01/20 10:42:08;;;;;;;24.17;10.90;;;3.50;99.90;;;;;;5056827;28;20029;-59
2023/01/20 10:44:34;;;;;;;19.53;11.73;;;3.70;99.90;;;;;;5057283;28;20033;-60
2023/01/20 10:47:16;;;;;;;24.58;11.52;;;3.90;99.90;;;;;;5055946;28;20392;-59
2023/01/20 10:50:02;;;;;;;22.08;12.15;;;4.00;99.90;;;;;;5059622;28;20048;-59
2023/01/20 10:52:44;;;;;;;22.23;13.48;;;4.10;99.90;;;;;;5076648;28;20423;-60
2023/01/20 10:55:18;;;;;;;24.80;14.43;;;4.20;99.90;;;;;;5076758;28;20063;-60
2023/01/20 10:57:49;;;;;;;24.45;14.70;;;4.30;99.90;;;;;;5059208;28;20345;-59
2023/01/20 11:00:27;;;;;;;22.30;14.57;;;4.20;99.90;;;;;;5076685;28;20064;-59
2023/01/20 11:02:57;;;;;;;24.58;15.40;;;4.10;99.90;;;;;;5076870;28;20029;-59
2023/01/20 11:05:36;;;;;;;24.92;17.30;;;4.20;99.90;;;;;;5076574;28;20032;-58
2023/01/20 11:08:20;;;;;;;16.80;10.88;;;4.20;99.90;;;;;;5076450;28;20036;-59
2023/01/20 11:10:54;;;;;;;15.82;8.60;;;4.10;99.90;;;;;;5076594;28;20051;-59
2023/01/20 11:13:19;;;;;;;10.82;7.40;;;4.00;99.90;;;;;;5076321;28;20037;-58
2023/01/20 11:16:10;;;;;;;9.50;7.50;;;3.90;99.90;;;;;;5077345;28;20063;-58
2023/01/20 11:18:36;;;;;;;8.80;7.30;;;3.90;99.90;;;;;;5067992;28;20048;-58
2023/01/20 11:21:05;;;;;;;9.68;6.65;;;3.90;99.90;;;;;;5076247;28;20048;-60
2023/01/20 11:23:35;;;;;;;8.80;6.90;;;3.90;99.90;;;;;;5080017;28;20028;-58
2023/01/20 11:26:21;;;;;;;10.32;7.00;;;3.50;99.90;;;;;;5062850;28;20043;-58
2023/01/20 11:29:21;;;;;;;9.77;6.93;;;3.50;99.90;;;;;;5080453;28;20388;-59
2023/01/20 11:31:53;;;;;;;9.82;6.97;;;3.60;99.90;;;;;;5080167;28;20502;-59
2023/01/20 11:34:18;;;;;;;9.85;7.80;;;3.70;99.90;;;;;;5080853;28;20032;-59
2023/01/20 11:36:44;;;;;;;12.23;8.55;;;3.80;99.90;;;;;;5080096;28;20021;-59
2023/01/20 11:39:32;;;;;;;12.10;7.50;;;4.00;99.90;;;;;;5063228;28;20028;-59
2023/01/20 11:42:24;;;;;;;12.68;7.47;;;4.10;99.90;;;;;;5062693;28;20028;-59
2023/01/20 11:44:52;;;;;;;10.15;6.95;;;4.10;99.90;;;;;;5080026;28;20031;-59
2023/01/20 11:47:31;;;;;;;9.68;6.82;;;4.10;99.90;;;;;;5079891;28;20081;-59
2023/01/20 11:50:03;;;;;;;10.18;7.18;;;4.10;99.90;;;;;;5079734;28;20090;-59
2023/01/20 11:52:34;;;;;;;9.32;6.45;;;4.10;99.90;;;;;;5079775;28;20037;-58
2023/01/20 11:55:08;;;;;;;10.95;7.00;;;4.10;99.90;;;;;;5079877;28;20028;-59
2023/01/20 11:57:36;;;;;;;7.78;6.55;;;4.10;99.90;;;;;;5062415;28;20135;-59
2023/01/20 12:00:03;;;;;;;8.73;5.93;;;4.00;99.90;;;;;;5079871;28;20261;-59
2023/01/20 12:02:40;;;;;;;8.77;6.40;;;3.60;99.90;;;;;;5079907;28;20044;-59
2023/01/20 12:05:21;;;;;;;7.57;5.88;;;3.40;99.90;;;;;;5079706;28;20029;-60
2023/01/20 12:07:51;;;;;;;7.75;5.25;;;3.50;99.90;;;;;;5079717;28;20036;-59
2023/01/20 12:10:20;;;;;;;8.63;6.88;;;3.50;99.90;;;;;;5079562;28;20054;-59
2023/01/20 12:13:11;;;;;;;9.73;6.93;;;3.20;99.90;;;;;;5079581;28;20477;-59
2023/01/20 12:15:42;;;;;;;29.70;18.67;;;3.10;99.90;;;;;;5079404;28;20028;-59
2023/01/20 12:18:51;;;;;;;12.57;8.45;;;3.30;99.90;;;;;;5079465;28;20392;-60
2023/01/20 12:21:18;;;;;;;9.93;8.57;;;3.30;99.90;;;;;;5079370;28;20035;-59
2023/01/20 12:24:15;;;;;;;11.13;8.73;;;3.30;99.90;;;;;;5079679;28;20066;-59
2023/01/20 12:26:41;;;;;;;7.45;6.55;;;3.50;99.90;;;;;;5079277;28;20028;-59
2023/01/20 12:29:07;;;;;;;10.48;7.50;;;3.40;99.90;;;;;;5079184;28;20422;-58
2023/01/20 12:31:33;;;;;;;7.78;6.03;;;3.20;99.90;;;;;;5079649;28;20024;-59
2023/01/20 12:34:05;;;;;;;8.98;6.28;;;3.10;99.90;;;;;;5061441;28;20041;-60
2023/01/20 12:36:34;;;;;;;7.72;6.00;;;3.20;99.90;;;;;;5061703;28;20036;-59
2023/01/20 12:39:27;;;;;;;7.78;6.32;;;3.20;99.90;;;;;;5079075;28;20068;-59
2023/01/20 12:42:20;;;;;;;6.68;5.95;;;3.30;99.90;;;;;;5079397;28;20028;-59
2023/01/20 12:44:48;;;;;;;;;;;3.40;99.90;;;;;;5079479;28;20043;-59
2023/01/20 12:47:44;;;;;;;10.77;8.18;;;3.30;99.90;;;;;;5078869;28;19966;-59
2023/01/20 12:50:48;;;;;;;9.77;7.03;;;3.30;99.90;;;;;;5061315;28;20106;-59
2023/01/20 12:53:37;;;;;;;8.68;6.85;;;3.40;99.90;;;;;;5061263;28;20059;-59
2023/01/20 12:56:06;;;;;;;8.82;6.50;;;3.30;99.90;;;;;;5078787;28;20032;-60
2023/01/20 12:59:03;;;;;;;8.05;6.25;;;3.40;99.90;;;;;;5078563;28;20090;-59
2023/01/20 13:01:46;;;;;;;7.38;6.57;;;3.40;99.90;;;;;;5079108;28;20292;-59
2023/01/20 13:04:30;;;;;;;;;;;3.70;99.90;;;;;;5079641;28;20116;-59
2023/01/20 13:07:10;;;;;;;12.30;8.60;;;3.90;99.90;;;;;;5078284;28;20168;-60
2023/01/20 13:09:51;;;;;;;16.60;9.95;;;4.10;99.90;;;;;;5078417;28;20090;-59
2023/01/20 13:12:23;;;;;;;11.13;8.32;;;4.00;99.90;;;;;;5060869;28;20028;-59